Time;durP1;ratioP1;P1;durP2;ratioP2;P2;SDS_P1;SDS_P2;PMS_P1;PMS_P2;Temp;Humidity;BMP_temperature;BMP_pressure;BME280_temperature;BME280_humidity;BME280_pressure;Samples;Min_cycle;Max_cycle;Signal;HPM_P1;HPM_P2
2021/04/28 00:00:14;;;;;;;0.70;0.70;;;20.80;42.60;;;;;;4984314;28;20431;-71
2021/04/28 00:02:41;;;;;;;1.85;1.15;;;20.80;42.00;;;;;;4990507;28;20503;-69
2021/04/28 00:05:08;;;;;;;1.00;0.70;;;20.80;41.70;;;;;;5002810;28;20413;-70
2021/04/28 00:07:35;;;;;;;1.00;0.90;;;20.80;42.10;;;;;;5003327;28;20424;-70
2021/04/28 00:10:01;;;;;;;0.80;0.80;;;20.90;41.50;;;;;;4988426;28;20424;-69
2021/04/28 00:12:27;;;;;;;1.13;1.13;;;20.90;41.90;;;;;;4986816;28;20435;-68
2021/04/28 00:14:53;;;;;;;1.00;0.93;;;20.90;41.50;;;;;;4997555;28;20436;-70
2021/04/28 00:17:19;;;;;;;1.27;0.90;;;20.90;40.90;;;;;;4981461;28;21258;-70
2021/04/28 00:19:46;;;;;;;2.50;1.00;;;20.90;40.90;;;;;;4996124;28;20408;-71
2021/04/28 00:22:13;;;;;;;1.30;1.10;;;21.00;40.60;;;;;;5003680;28;20415;-71
2021/04/28 00:24:39;;;;;;;1.85;0.90;;;21.00;40.30;;;;;;5005444;28;20411;-70
2021/04/28 00:27:05;;;;;;;1.20;0.90;;;21.00;40.20;;;;;;4992637;28;20932;-71
2021/04/28 00:29:32;;;;;;;1.30;1.20;;;21.00;40.30;;;;;;5002600;28;20424;-71
2021/04/28 00:31:58;;;;;;;1.00;1.00;;;21.00;40.30;;;;;;4999037;28;20441;-70
2021/04/28 00:34:24;;;;;;;1.80;1.00;;;21.00;41.60;;;;;;5003601;28;21238;-70
2021/04/28 00:36:51;;;;;;;0.93;0.93;;;20.90;41.10;;;;;;5003203;28;20415;-70
2021/04/28 00:39:17;;;;;;;1.10;0.90;;;20.90;41.30;;;;;;4984714;28;20503;-71
2021/04/28 00:41:43;;;;;;;1.05;1.00;;;20.90;41.30;;;;;;4998419;28;20477;-71
2021/04/28 00:44:10;;;;;;;1.20;0.70;;;20.90;41.30;;;;;;5005749;28;20436;-71
2021/04/28 00:46:36;;;;;;;1.60;0.90;;;20.90;41.40;;;;;;4992007;28;20945;-70
2021/04/28 00:49:02;;;;;;;0.80;0.80;;;20.80;41.20;;;;;;5002890;28;20434;-71
2021/04/28 00:51:28;;;;;;;0.90;0.90;;;20.80;41.40;;;;;;5000415;28;20976;-71
2021/04/28 00:53:55;;;;;;;1.70;1.00;;;20.80;41.70;;;;;;5011613;28;20398;-71
2021/04/28 00:56:21;;;;;;;1.02;0.90;;;20.80;41.30;;;;;;5023815;28;20409;-72
2021/04/28 00:58:48;;;;;;;2.90;0.90;;;20.80;41.30;;;;;;5030331;28;20408;-71
2021/04/28 01:01:14;;;;;;;1.20;0.80;;;20.80;41.60;;;;;;5010639;28;20420;-71
2021/04/28 01:03:40;;;;;;;0.80;0.80;;;20.80;41.40;;;;;;5009261;28;20424;-71
2021/04/28 01:06:07;;;;;;;1.10;0.80;;;20.80;41.40;;;;;;5001422;28;20421;-71
2021/04/28 01:08:34;;;;;;;1.25;1.15;;;20.80;41.50;;;;;;5010146;28;20478;-70
2021/04/28 01:11:01;;;;;;;0.90;0.90;;;20.80;41.60;;;;;;4994990;28;20419;-71
2021/04/28 01:13:27;;;;;;;1.52;0.90;;;20.80;41.60;;;;;;4997821;28;20476;-70
2021/04/28 01:15:53;;;;;;;1.40;1.00;;;20.90;41.60;;;;;;5005944;28;20454;-69
2021/04/28 01:18:20;;;;;;;0.70;0.70;;;20.90;41.50;;;;;;5013665;28;20477;-70
2021/04/28 01:20:46;;;;;;;0.83;0.83;;;20.90;41.20;;;;;;5001428;28;21010;-70
2021/04/28 01:23:14;;;;;;;1.37;0.93;;;20.80;41.10;;;;;;4996815;28;20728;-70
2021/04/28 01:25:40;;;;;;;0.83;0.83;;;20.80;41.10;;;;;;5006832;28;20415;-70
2021/04/28 01:28:07;;;;;;;0.90;0.70;;;20.80;41.30;;;;;;5006008;28;20413;-69
2021/04/28 01:30:36;;;;;;;0.70;0.70;;;20.80;41.30;;;;;;5012143;28;20778;-70
2021/04/28 01:33:02;;;;;;;0.90;0.90;;;20.80;41.30;;;;;;5005663;28;20420;-70
2021/04/28 01:35:28;;;;;;;1.75;1.00;;;20.80;41.70;;;;;;5006458;28;20425;-70
2021/04/28 01:37:55;;;;;;;1.00;0.80;;;20.80;41.30;;;;;;4999089;28;20430;-70
2021/04/28 01:40:22;;;;;;;0.93;0.80;;;20.80;41.70;;;;;;5011659;28;21171;-69
2021/04/28 01:42:49;;;;;;;0.93;0.93;;;20.80;41.60;;;;;;5010244;28;20421;-69
2021/04/28 01:45:16;;;;;;;0.70;0.70;;;20.70;41.40;;;;;;5003179;28;20401;-70
2021/04/28 01:47:42;;;;;;;1.70;0.80;;;20.70;41.40;;;;;;4990566;28;20490;-70
2021/04/28 01:50:10;;;;;;;0.80;0.80;;;20.70;41.50;;;;;;5018568;28;21010;-69
2021/04/28 01:52:37;;;;;;;1.30;1.10;;;20.70;41.50;;;;;;5006961;28;20415;-70
2021/04/28 01:55:03;;;;;;;0.80;0.70;;;20.70;41.20;;;;;;5003520;28;21030;-70
2021/04/28 01:57:31;;;;;;;1.60;0.95;;;20.70;41.10;;;;;;5015244;28;20430;-71
2021/04/28 01:59:57;;;;;;;1.20;1.10;;;20.70;41.00;;;;;;5003026;28;20839;-71
2021/04/28 02:02:23;;;;;;;1.10;1.00;;;20.70;40.70;;;;;;5000296;28;20922;-70
2021/04/28 02:04:49;;;;;;;0.93;0.90;;;20.80;40.80;;;;;;5005689;28;20421;-70
2021/04/28 02:07:16;;;;;;;0.80;0.80;;;20.80;41.00;;;;;;5011674;28;20423;-70
2021/04/28 02:09:42;;;;;;;0.70;0.70;;;20.80;41.00;;;;;;4996914;28;20416;-70
2021/04/28 02:12:10;;;;;;;0.90;0.90;;;20.80;41.00;;;;;;5005290;28;20421;-71
2021/04/28 02:14:37;;;;;;;1.10;1.00;;;20.80;40.70;;;;;;5008287;28;20415;-70
2021/04/28 02:17:04;;;;;;;0.80;0.80;;;20.80;40.70;;;;;;5005378;28;20422;-71
2021/04/28 02:19:30;;;;;;;1.00;0.90;;;20.80;40.80;;;;;;5007949;28;20411;-71
2021/04/28 02:21:56;;;;;;;1.10;1.00;;;20.80;40.90;;;;;;5004975;28;20481;-70
2021/04/28 02:24:22;;;;;;;2.53;1.05;;;20.80;40.80;;;;;;5009575;28;20486;-70
2021/04/28 02:26:48;;;;;;;1.15;0.80;;;20.70;40.50;;;;;;5005007;28;20424;-69
2021/04/28 02:29:14;;;;;;;0.73;0.70;;;20.80;40.60;;;;;;5005135;28;20999;-70
2021/04/28 02:31:41;;;;;;;1.08;0.88;;;20.80;40.40;;;;;;5003012;28;20425;-71
2021/04/28 02:34:08;;;;;;;0.90;0.80;;;20.80;40.20;;;;;;4997675;28;20420;-70
2021/04/28 02:36:35;;;;;;;0.90;0.70;;;20.80;40.20;;;;;;5005666;28;20948;-71
2021/04/28 02:39:04;;;;;;;1.85;0.98;;;20.80;40.30;;;;;;5007657;28;20429;-70
2021/04/28 02:41:30;;;;;;;0.80;0.80;;;20.80;40.40;;;;;;5007546;28;20423;-70
2021/04/28 02:43:56;;;;;;;0.80;0.80;;;20.80;40.00;;;;;;5000986;28;20423;-71
2021/04/28 02:46:22;;;;;;;1.30;0.90;;;20.80;40.30;;;;;;5005779;28;20434;-70
2021/04/28 02:48:50;;;;;;;1.27;1.10;;;20.80;40.10;;;;;;5013409;28;20416;-68
2021/04/28 02:51:16;;;;;;;0.90;0.80;;;20.80;40.00;;;;;;5005638;28;20427;-70
2021/04/28 02:53:43;;;;;;;0.60;0.60;;;20.80;39.70;;;;;;4996512;28;20428;-70
2021/04/28 02:56:09;;;;;;;1.30;0.80;;;20.80;39.30;;;;;;5001932;28;20445;-70
2021/04/28 02:58:36;;;;;;;0.80;0.80;;;20.90;39.30;;;;;;4993464;28;20531;-70
2021/04/28 03:01:03;;;;;;;0.70;0.70;;;20.90;39.40;;;;;;4999738;28;21028;-70
2021/04/28 03:03:29;;;;;;;0.73;0.73;;;20.90;39.50;;;;;;5007954;28;20413;-71
2021/04/28 03:05:56;;;;;;;1.10;1.00;;;20.90;39.90;;;;;;5012978;28;20403;-70
2021/04/28 03:08:22;;;;;;;1.10;1.00;;;20.90;40.10;;;;;;4987803;28;20472;-71
2021/04/28 03:10:48;;;;;;;1.23;0.70;;;20.80;40.00;;;;;;4999968;28;20431;-69
2021/04/28 03:13:15;;;;;;;1.10;1.00;;;20.80;40.10;;;;;;5009290;28;20452;-70
2021/04/28 03:15:41;;;;;;;0.70;0.70;;;20.90;40.70;;;;;;5005442;28;20421;-70
2021/04/28 03:18:07;;;;;;;1.00;0.80;;;20.90;40.60;;;;;;5005211;28;20416;-70
2021/04/28 03:20:34;;;;;;;2.10;1.00;;;20.90;40.70;;;;;;5001961;28;20412;-70
2021/04/28 03:23:01;;;;;;;0.73;0.73;;;20.90;40.70;;;;;;5000981;28;20539;-71
2021/04/28 03:25:27;;;;;;;1.15;0.90;;;20.90;40.70;;;;;;4998573;28;20413;-71
2021/04/28 03:27:53;;;;;;;0.80;0.80;;;20.90;40.50;;;;;;5009288;28;20422;-71
2021/04/28 03:30:20;;;;;;;0.82;0.82;;;20.90;40.20;;;;;;5005468;28;20430;-70
2021/04/28 03:32:46;;;;;;;1.10;1.00;;;21.00;40.20;;;;;;5009287;28;20846;-70
2021/04/28 03:35:13;;;;;;;1.25;0.90;;;21.00;40.10;;;;;;5007001;28;20420;-70
2021/04/28 03:37:39;;;;;;;0.80;0.70;;;21.00;39.80;;;;;;5007761;28;20428;-70
2021/04/28 03:40:08;;;;;;;0.88;0.80;;;21.00;39.60;;;;;;5005381;28;20422;-70
2021/04/28 03:42:34;;;;;;;1.00;0.90;;;21.00;39.50;;;;;;4991284;28;20422;-70
2021/04/28 03:45:00;;;;;;;1.00;0.85;;;21.10;39.20;;;;;;5011171;28;20409;-70
2021/04/28 03:47:27;;;;;;;1.30;1.07;;;21.00;39.40;;;;;;5005562;28;20415;-70
2021/04/28 03:49:53;;;;;;;1.02;0.93;;;21.00;39.40;;;;;;5002380;28;20419;-70
2021/04/28 03:52:19;;;;;;;1.05;1.00;;;21.00;39.60;;;;;;4995590;28;20427;-69
2021/04/28 03:54:45;;;;;;;1.40;0.93;;;21.00;39.80;;;;;;5016266;28;20425;-71
2021/04/28 03:57:12;;;;;;;1.92;0.80;;;20.90;39.70;;;;;;5007021;28;20440;-70
2021/04/28 03:59:38;;;;;;;0.80;0.80;;;20.90;39.70;;;;;;5003323;28;20547;-69
2021/04/28 04:02:04;;;;;;;0.88;0.88;;;20.90;39.80;;;;;;4993126;28;21171;-70
2021/04/28 04:04:30;;;;;;;1.10;1.10;;;20.90;39.70;;;;;;5004369;28;21106;-70
2021/04/28 04:06:56;;;;;;;0.82;0.82;;;20.90;39.60;;;;;;5000846;28;20419;-70
2021/04/28 04:09:23;;;;;;;0.98;0.98;;;20.90;39.60;;;;;;4991183;28;20425;-71
2021/04/28 04:11:49;;;;;;;1.10;1.10;;;20.90;39.60;;;;;;4998065;28;20715;-70
2021/04/28 04:14:16;;;;;;;1.10;1.00;;;20.90;39.60;;;;;;5003803;28;20463;-70
2021/04/28 04:16:42;;;;;;;0.90;0.90;;;20.90;39.50;;;;;;5005049;28;20494;-71
2021/04/28 04:19:08;;;;;;;0.80;0.80;;;20.90;39.40;;;;;;5001396;28;20423;-70
2021/04/28 04:21:34;;;;;;;1.00;0.90;;;20.90;39.40;;;;;;5005275;28;20426;-70
2021/04/28 04:24:00;;;;;;;1.35;1.00;;;20.90;39.20;;;;;;5006647;28;20524;-70
2021/04/28 04:26:27;;;;;;;2.00;1.00;;;20.90;39.00;;;;;;4999887;28;20431;-71
2021/04/28 04:28:53;;;;;;;0.88;0.80;;;20.90;38.70;;;;;;4999426;28;20956;-70
2021/04/28 04:31:20;;;;;;;1.00;1.00;;;20.90;38.70;;;;;;5018506;28;20411;-70
2021/04/28 04:33:46;;;;;;;1.10;1.00;;;21.00;38.70;;;;;;5001414;28;20424;-69
2021/04/28 04:36:12;;;;;;;2.90;0.80;;;21.00;38.70;;;;;;4996236;28;20442;-70
2021/04/28 04:38:38;;;;;;;0.82;0.82;;;21.10;38.80;;;;;;5007031;28;20409;-71
2021/04/28 04:41:05;;;;;;;1.30;0.80;;;21.10;38.80;;;;;;5007044;28;20411;-70
2021/04/28 04:43:31;;;;;;;1.00;1.00;;;21.10;38.80;;;;;;5003205;28;20423;-70
2021/04/28 04:45:57;;;;;;;0.90;0.90;;;21.10;38.80;;;;;;5004862;28;20415;-69
2021/04/28 04:48:24;;;;;;;1.05;1.00;;;21.10;38.80;;;;;;5006954;28;20430;-70
2021/04/28 04:50:50;;;;;;;2.78;1.08;;;21.10;38.80;;;;;;4997172;28;20437;-69
2021/04/28 04:53:16;;;;;;;1.23;1.10;;;21.00;38.70;;;;;;5014456;28;20498;-70
2021/04/28 04:55:42;;;;;;;1.23;1.10;;;21.00;38.70;;;;;;5003547;28;21012;-70
2021/04/28 04:58:08;;;;;;;1.17;1.10;;;21.00;38.70;;;;;;5000911;28;20984;-70
2021/04/28 05:00:34;;;;;;;1.30;1.20;;;21.00;38.70;;;;;;5004520;28;20416;-70
2021/04/28 05:03:00;;;;;;;1.13;1.13;;;21.00;38.80;;;;;;4997917;28;20434;-70
2021/04/28 05:05:27;;;;;;;1.00;1.00;;;21.00;38.70;;;;;;4998304;28;20572;-69
2021/04/28 05:07:54;;;;;;;1.50;1.40;;;21.00;38.70;;;;;;5004518;28;20487;-70
2021/04/28 05:10:20;;;;;;;1.40;1.30;;;21.00;38.70;;;;;;4994675;28;20422;-70
2021/04/28 05:12:46;;;;;;;1.33;1.10;;;20.90;38.70;;;;;;5015187;28;20421;-70
2021/04/28 05:15:14;;;;;;;1.30;1.20;;;21.00;38.70;;;;;;4999824;28;20420;-71
2021/04/28 05:17:40;;;;;;;1.50;1.40;;;21.00;38.70;;;;;;5005503;28;20429;-71
2021/04/28 05:20:07;;;;;;;2.20;1.30;;;21.00;38.70;;;;;;5000209;28;20436;-70
2021/04/28 05:22:34;;;;;;;1.60;1.50;;;21.10;38.80;;;;;;4998657;28;20419;-71
2021/04/28 05:25:00;;;;;;;1.38;1.27;;;21.10;38.80;;;;;;4997270;28;20777;-70
2021/04/28 05:27:26;;;;;;;3.00;1.30;;;21.10;38.90;;;;;;5003098;28;20999;-70
2021/04/28 05:29:53;;;;;;;1.80;1.20;;;21.10;38.80;;;;;;4996660;28;21073;-71
2021/04/28 05:32:19;;;;;;;3.90;1.63;;;21.00;38.70;;;;;;5012258;28;20426;-70
2021/04/28 05:34:45;;;;;;;3.63;1.67;;;21.00;38.80;;;;;;4997969;28;20412;-71
2021/04/28 05:37:12;;;;;;;3.10;1.70;;;21.00;38.70;;;;;;4996563;28;20415;-70
2021/04/28 05:39:39;;;;;;;1.85;1.75;;;21.00;38.70;;;;;;5009784;28;20419;-71
2021/04/28 05:42:06;;;;;;;1.60;1.50;;;20.90;38.80;;;;;;4981710;28;20424;-70
2021/04/28 05:44:32;;;;;;;3.50;1.73;;;20.90;38.10;;;;;;4983528;28;22079;-70
2021/04/28 05:46:58;;;;;;;3.08;1.60;;;20.90;37.50;;;;;;4994395;28;20440;-70
2021/04/28 05:49:24;;;;;;;5.40;1.90;;;20.90;37.50;;;;;;4997009;28;20423;-70
2021/04/28 05:51:50;;;;;;;2.27;1.70;;;20.90;37.10;;;;;;4998026;28;20417;-70
2021/04/28 05:54:16;;;;;;;1.67;1.58;;;20.90;37.00;;;;;;4994096;28;20419;-70
2021/04/28 05:56:43;;;;;;;3.90;1.80;;;21.00;37.30;;;;;;4994176;28;20814;-69
2021/04/28 05:59:10;;;;;;;4.82;1.73;;;21.00;37.10;;;;;;5002082;28;20423;-69
2021/04/28 06:01:36;;;;;;;1.97;1.80;;;20.90;37.00;;;;;;4993135;28;20483;-70
2021/04/28 06:04:02;;;;;;;3.03;2.00;;;20.90;37.40;;;;;;5008322;28;21078;-69
2021/04/28 06:06:28;;;;;;;3.10;1.90;;;20.90;37.70;;;;;;5003450;28;20413;-69
2021/04/28 06:08:54;;;;;;;2.80;2.00;;;20.90;37.80;;;;;;5011783;28;20419;-70
2021/04/28 06:11:20;;;;;;;2.70;1.80;;;20.90;38.00;;;;;;4987792;28;20407;-70
2021/04/28 06:13:48;;;;;;;2.10;1.50;;;20.90;37.80;;;;;;5001687;28;20423;-70
2021/04/28 06:16:14;;;;;;;2.10;2.00;;;20.90;38.60;;;;;;4998171;28;20433;-69
2021/04/28 06:18:40;;;;;;;1.70;1.60;;;20.90;38.20;;;;;;5009242;28;20453;-70
2021/04/28 06:21:07;;;;;;;2.42;1.55;;;20.80;38.50;;;;;;5001266;28;21150;-71
2021/04/28 06:23:33;;;;;;;2.00;1.80;;;20.80;38.20;;;;;;4997685;28;20411;-69
2021/04/28 06:25:59;;;;;;;2.45;1.92;;;20.80;38.60;;;;;;5001195;28;20415;-69
2021/04/28 06:28:25;;;;;;;1.88;1.77;;;20.80;38.50;;;;;;4992241;28;20438;-70
2021/04/28 06:30:52;;;;;;;1.80;1.60;;;20.80;38.20;;;;;;4999767;28;20421;-70
2021/04/28 06:33:19;;;;;;;3.13;1.87;;;20.90;38.20;;;;;;5007888;28;20423;-69
2021/04/28 06:35:45;;;;;;;1.85;1.75;;;20.90;38.00;;;;;;4989603;28;20428;-70
2021/04/28 06:38:11;;;;;;;2.10;1.90;;;20.90;38.10;;;;;;4994941;28;20416;-70
2021/04/28 06:40:37;;;;;;;2.10;1.20;;;20.90;38.20;;;;;;5000532;28;20475;-70
2021/04/28 06:43:05;;;;;;;1.90;1.80;;;20.90;37.90;;;;;;4994665;28;20420;-70
2021/04/28 06:45:31;;;;;;;4.03;1.70;;;20.90;38.60;;;;;;4997473;28;20948;-70
2021/04/28 06:47:58;;;;;;;2.17;1.90;;;20.80;38.30;;;;;;5011330;28;20442;-70
2021/04/28 06:50:25;;;;;;;1.50;1.40;;;20.80;38.50;;;;;;5004412;28;20414;-70
2021/04/28 06:52:51;;;;;;;3.05;2.40;;;20.80;38.00;;;;;;4994793;28;20423;-70
2021/04/28 06:55:17;;;;;;;3.70;2.20;;;20.80;38.60;;;;;;5002144;28;20483;-71
2021/04/28 06:57:44;;;;;;;15.45;2.60;;;20.80;39.40;;;;;;4997411;28;21054;-71
2021/04/28 07:00:10;;;;;;;4.55;1.77;;;20.80;40.50;;;;;;4991640;28;20942;-70
2021/04/28 07:02:36;;;;;;;2.92;1.50;;;20.80;40.20;;;;;;5002303;28;21083;-70
2021/04/28 07:05:04;;;;;;;6.65;2.15;;;20.80;40.80;;;;;;5001576;28;20635;-70
2021/04/28 07:07:30;;;;;;;6.00;2.17;;;20.80;41.20;;;;;;4994272;28;20415;-71
2021/04/28 07:09:56;;;;;;;2.20;1.73;;;20.80;41.30;;;;;;4980848;28;20424;-70
2021/04/28 07:12:22;;;;;;;3.20;2.17;;;20.80;41.50;;;;;;5010223;28;20431;-70
2021/04/28 07:14:48;;;;;;;1.90;1.70;;;20.80;41.50;;;;;;5010048;28;20768;-71
2021/04/28 07:17:15;;;;;;;2.67;2.20;;;20.80;42.50;;;;;;5002180;28;21001;-70
2021/04/28 07:19:41;;;;;;;1.65;1.55;;;20.80;42.30;;;;;;4999162;28;20430;-71
2021/04/28 07:22:08;;;;;;;3.08;2.08;;;20.70;41.90;;;;;;4999187;28;20424;-71
2021/04/28 07:24:34;;;;;;;2.73;1.90;;;20.70;42.60;;;;;;5003899;28;20418;-70
2021/04/28 07:27:00;;;;;;;3.47;1.70;;;20.70;42.00;;;;;;5003863;28;20422;-70
2021/04/28 07:29:26;;;;;;;2.08;1.65;;;20.70;42.40;;;;;;4997152;28;20453;-71
2021/04/28 07:31:52;;;;;;;2.88;2.10;;;20.70;41.90;;;;;;4995336;28;20461;-70
2021/04/28 07:34:18;;;;;;;2.90;1.63;;;20.70;41.80;;;;;;4999271;28;20483;-70
2021/04/28 07:36:45;;;;;;;5.50;1.92;;;20.70;41.80;;;;;;4991719;28;20411;-71
2021/04/28 07:39:12;;;;;;;1.80;1.63;;;20.70;41.40;;;;;;5003832;28;20416;-70
2021/04/28 07:41:38;;;;;;;4.32;1.70;;;20.70;41.80;;;;;;4985446;28;20436;-71
2021/04/28 07:44:05;;;;;;;1.63;1.52;;;20.80;42.20;;;;;;5002269;28;20504;-71
2021/04/28 07:46:32;;;;;;;5.30;1.95;;;20.80;42.90;;;;;;4997626;28;20414;-71
2021/04/28 07:49:03;;;;;;;3.20;1.90;;;20.80;43.40;;;;;;5003981;28;20899;-70
2021/04/28 07:51:29;;;;;;;4.65;1.75;;;20.80;43.80;;;;;;4992393;28;20506;-70
2021/04/28 07:53:55;;;;;;;2.80;1.70;;;20.90;44.10;;;;;;5010207;28;20428;-71
2021/04/28 07:56:22;;;;;;;1.75;1.65;;;20.80;43.60;;;;;;5004968;28;20488;-71
2021/04/28 07:58:48;;;;;;;2.10;2.00;;;20.80;44.40;;;;;;4997730;28;20473;-70
2021/04/28 08:01:15;;;;;;;1.70;1.60;;;20.80;45.20;;;;;;5005316;28;20427;-70
2021/04/28 08:03:41;;;;;;;3.00;1.80;;;20.80;42.60;;;;;;5004446;28;20408;-71
2021/04/28 08:06:07;;;;;;;2.20;2.00;;;20.70;45.20;;;;;;5002149;28;20422;-70
2021/04/28 08:08:33;;;;;;;5.60;2.60;;;20.70;46.10;;;;;;4999126;28;20418;-69
2021/04/28 08:10:59;;;;;;;2.10;1.60;;;20.70;45.10;;;;;;4989032;28;21435;-70
2021/04/28 08:13:26;;;;;;;2.50;2.10;;;20.70;46.20;;;;;;5000945;28;20421;-70
2021/04/28 08:15:53;;;;;;;2.42;1.70;;;20.70;46.00;;;;;;5002908;28;20436;-70
2021/04/28 08:18:19;;;;;;;2.15;1.80;;;20.70;46.90;;;;;;5000440;28;20426;-70
2021/04/28 08:20:45;;;;;;;2.80;1.95;;;20.70;47.60;;;;;;4997251;28;20429;-69
2021/04/28 08:23:11;;;;;;;2.10;1.77;;;20.70;48.00;;;;;;4996515;28;20450;-70
2021/04/28 08:25:37;;;;;;;3.50;2.42;;;20.70;47.90;;;;;;5000027;28;20417;-70
2021/04/28 08:28:04;;;;;;;2.22;1.90;;;20.70;48.80;;;;;;4999808;28;20437;-70
2021/04/28 08:30:31;;;;;;;1.95;1.85;;;20.70;48.90;;;;;;4998780;28;20483;-70
2021/04/28 08:32:57;;;;;;;1.60;1.50;;;20.70;48.30;;;;;;4994110;28;20419;-70
2021/04/28 08:35:23;;;;;;;1.55;1.45;;;20.80;48.50;;;;;;4999676;28;20428;-70
2021/04/28 08:37:49;;;;;;;2.72;1.90;;;20.80;48.40;;;;;;4997575;28;20530;-69
2021/04/28 08:40:16;;;;;;;1.80;1.70;;;20.90;48.40;;;;;;5008355;28;20415;-70
2021/04/28 08:42:42;;;;;;;1.90;1.70;;;20.90;48.30;;;;;;5000529;28;20860;-70
2021/04/28 08:45:10;;;;;;;1.52;1.48;;;21.00;48.00;;;;;;4995534;28;20945;-71
2021/04/28 08:47:37;;;;;;;1.60;1.50;;;21.10;47.80;;;;;;4983696;28;20434;-69
2021/04/28 08:50:04;;;;;;;1.50;1.40;;;21.10;47.60;;;;;;5001109;28;21565;-69
2021/04/28 08:52:30;;;;;;;1.73;1.63;;;21.10;48.50;;;;;;5006320;28;20449;-70
2021/04/28 08:54:56;;;;;;;1.80;1.70;;;21.20;47.90;;;;;;5000423;28;20569;-70
2021/04/28 08:57:22;;;;;;;2.40;1.83;;;21.20;47.40;;;;;;4997623;28;20421;-71
2021/04/28 08:59:49;;;;;;;1.50;1.40;;;21.20;47.50;;;;;;4997226;28;20421;-70
2021/04/28 09:02:17;;;;;;;1.50;1.40;;;21.20;47.60;;;;;;5008167;28;20497;-67
2021/04/28 09:04:59;;;;;;;1.73;1.63;;;21.20;47.60;;;;;;4995969;28;20438;-70
2021/04/28 09:07:29;;;;;;;2.30;1.70;;;21.20;48.00;;;;;;5003540;28;20418;-69
2021/04/28 09:10:03;;;;;;;1.60;1.50;;;21.10;48.30;;;;;;4991318;28;20425;-70
2021/04/28 09:12:29;;;;;;;2.75;1.92;;;21.00;47.40;;;;;;5013110;28;20434;-71
2021/04/28 09:14:55;;;;;;;1.90;1.58;;;21.00;47.50;;;;;;4993338;28;20419;-71
2021/04/28 09:17:21;;;;;;;1.80;1.70;;;20.90;48.60;;;;;;5009348;28;20416;-71
2021/04/28 09:19:54;;;;;;;4.20;1.90;;;20.90;50.10;;;;;;5000016;28;20486;-71
2021/04/28 09:22:21;;;;;;;4.45;1.50;;;21.00;47.30;;;;;;4989364;28;20986;-69
2021/04/28 09:24:48;;;;;;;5.45;1.50;;;21.00;50.00;;;;;;5000076;28;20911;-70
2021/04/28 09:27:26;;;;;;;3.40;1.70;;;21.10;51.20;;;;;;4999540;28;20412;-70
2021/04/28 09:29:52;;;;;;;1.80;1.70;;;21.10;51.90;;;;;;4988555;28;20501;-70
2021/04/28 09:32:19;;;;;;;2.35;1.70;;;21.10;52.40;;;;;;4989964;28;20419;-70
2021/04/28 09:34:45;;;;;;;2.42;1.50;;;21.10;51.60;;;;;;5000560;28;20522;-69
2021/04/28 09:37:13;;;;;;;1.75;1.65;;;21.10;52.30;;;;;;4991879;28;21421;-71
2021/04/28 09:39:47;;;;;;;2.10;1.50;;;21.10;53.30;;;;;;5002407;28;20427;-70
2021/04/28 09:42:15;;;;;;;2.05;1.80;;;21.00;54.00;;;;;;4993880;28;20481;-70
2021/04/28 09:44:47;;;;;;;2.80;1.20;;;21.00;53.90;;;;;;4995797;28;20426;-71
2021/04/28 09:47:15;;;;;;;1.52;1.42;;;21.00;54.10;;;;;;5006682;28;20449;-72
2021/04/28 09:49:49;;;;;;;2.00;1.57;;;21.00;54.50;;;;;;4998004;28;20431;-71
2021/04/28 09:52:17;;;;;;;2.25;1.65;;;21.00;54.60;;;;;;5002276;28;20435;-69
2021/04/28 09:54:43;;;;;;;1.60;1.60;;;20.90;54.10;;;;;;5007997;28;20438;-71
2021/04/28 09:57:12;;;;;;;1.58;1.48;;;20.90;54.60;;;;;;5006393;28;21221;-71
2021/04/28 09:59:43;;;;;;;1.73;1.63;;;20.90;54.80;;;;;;4996247;28;21441;-70
2021/04/28 10:02:12;;;;;;;3.50;1.90;;;20.90;54.40;;;;;;5005470;28;20433;-70
2021/04/28 10:04:38;;;;;;;1.83;1.73;;;20.90;55.00;;;;;;5004443;28;20434;-70
2021/04/28 10:07:04;;;;;;;1.33;1.23;;;20.90;55.70;;;;;;4991995;28;20436;-70
2021/04/28 10:09:34;;;;;;;2.30;1.65;;;20.90;55.30;;;;;;5009677;28;20411;-70
2021/04/28 10:12:01;;;;;;;1.52;1.50;;;20.90;54.60;;;;;;5005260;28;20972;-70
2021/04/28 10:14:28;;;;;;;1.50;1.40;;;20.90;54.60;;;;;;4999848;28;20424;-70
2021/04/28 10:16:55;;;;;;;2.00;1.90;;;20.90;54.10;;;;;;5000894;28;20427;-70
2021/04/28 10:19:23;;;;;;;1.77;1.63;;;20.90;54.50;;;;;;4999348;28;20521;-70
2021/04/28 10:21:49;;;;;;;1.70;1.60;;;20.90;54.40;;;;;;5004525;28;20440;-70
2021/04/28 10:24:16;;;;;;;1.30;1.20;;;20.90;54.70;;;;;;5001839;28;20419;-70
2021/04/28 10:26:43;;;;;;;2.20;1.50;;;20.90;54.20;;;;;;4998464;28;20431;-71
2021/04/28 10:29:10;;;;;;;1.60;1.50;;;20.90;55.20;;;;;;5004487;28;20407;-68
2021/04/28 10:31:37;;;;;;;2.20;1.50;;;20.90;54.90;;;;;;5002566;28;20444;-71
2021/04/28 10:34:03;;;;;;;1.90;1.40;;;20.90;56.00;;;;;;5000576;28;20431;-69
2021/04/28 10:36:29;;;;;;;1.52;1.40;;;20.90;55.90;;;;;;4995152;28;20861;-71
2021/04/28 10:38:55;;;;;;;1.98;1.77;;;20.90;56.00;;;;;;5008133;28;20429;-70
2021/04/28 10:41:39;;;;;;;1.83;1.73;;;20.90;55.90;;;;;;4995279;28;21563;-68
2021/04/28 10:44:06;;;;;;;1.60;1.50;;;20.80;55.30;;;;;;4999971;28;20496;-71
2021/04/28 10:46:32;;;;;;;1.80;1.70;;;20.80;54.60;;;;;;5001088;28;20413;-70
2021/04/28 10:49:15;;;;;;;1.70;1.60;;;20.80;55.80;;;;;;4983671;28;20513;-70
2021/04/28 10:51:42;;;;;;;3.10;1.40;;;20.80;55.40;;;;;;5000709;28;20514;-71
2021/04/28 10:54:22;;;;;;;1.77;1.50;;;20.90;55.10;;;;;;5000860;28;20411;-70
2021/04/28 10:57:01;;;;;;;1.60;1.20;;;20.90;54.10;;;;;;5003007;28;21776;-70
2021/04/28 10:59:35;;;;;;;1.80;1.70;;;20.90;54.60;;;;;;4990043;28;20414;-71
2021/04/28 11:02:06;;;;;;;1.70;1.60;;;20.90;54.20;;;;;;4973361;28;20425;-68
2021/04/28 11:04:32;;;;;;;2.80;1.90;;;20.90;54.30;;;;;;4986047;28;20458;-71
2021/04/28 11:06:58;;;;;;;1.60;1.50;;;20.90;54.20;;;;;;4994040;28;20984;-71
2021/04/28 11:09:25;;;;;;;1.60;1.50;;;20.90;55.30;;;;;;5001511;28;20860;-70
2021/04/28 11:12:01;;;;;;;1.85;1.75;;;20.90;54.90;;;;;;4972982;28;20413;-72
2021/04/28 11:14:35;;;;;;;1.60;1.50;;;20.90;54.80;;;;;;5009232;28;20423;-71
2021/04/28 11:17:02;;;;;;;1.90;1.70;;;20.90;54.90;;;;;;4982304;28;20971;-71
2021/04/28 11:19:30;;;;;;;1.80;1.70;;;20.90;54.60;;;;;;5003271;28;20407;-70
2021/04/28 11:22:28;;;;;;;1.30;1.20;;;20.80;54.40;;;;;;4996179;28;21262;-71
2021/04/28 11:25:00;;;;;;;2.05;1.80;;;20.80;53.80;;;;;;4936269;28;20429;-70
2021/04/28 11:27:48;;;;;;;1.55;1.45;;;20.90;52.90;;;;;;4986370;28;20426;-70
2021/04/28 11:30:44;;;;;;;2.20;1.63;;;20.90;53.30;;;;;;4993100;28;20480;-70
2021/04/28 11:33:15;;;;;;;2.10;1.90;;;20.90;53.40;;;;;;4992354;28;20462;-70
2021/04/28 11:35:42;;;;;;;1.83;1.73;;;20.90;53.20;;;;;;4989315;28;20527;-70
2021/04/28 11:38:09;;;;;;;1.90;1.80;;;20.90;52.90;;;;;;5003115;28;21218;-70
2021/04/28 11:40:52;;;;;;;1.80;1.70;;;20.90;52.90;;;;;;5004765;28;20413;-70
2021/04/28 11:43:19;;;;;;;1.90;1.80;;;20.90;53.40;;;;;;4992278;28;20447;-69
2021/04/28 11:45:46;;;;;;;2.33;2.13;;;20.90;53.60;;;;;;5000289;28;20435;-70
2021/04/28 11:48:19;;;;;;;1.67;1.58;;;20.90;53.50;;;;;;4995217;28;20440;-70
2021/04/28 11:50:52;;;;;;;1.70;1.60;;;20.90;52.70;;;;;;4998207;28;20532;-69
2021/04/28 11:53:18;;;;;;;3.60;1.95;;;20.90;53.60;;;;;;5001019;28;20465;-70
2021/04/28 11:55:44;;;;;;;1.80;1.70;;;21.00;53.80;;;;;;4995808;28;20800;-71
2021/04/28 11:58:21;;;;;;;2.20;1.70;;;21.00;54.10;;;;;;4996021;28;20433;-71
2021/04/28 12:00:48;;;;;;;2.20;2.00;;;21.00;53.40;;;;;;4995090;28;20414;-70
2021/04/28 12:03:14;;;;;;;1.60;1.50;;;21.00;52.70;;;;;;4997631;28;20424;-70
2021/04/28 12:05:40;;;;;;;1.90;1.70;;;21.00;52.80;;;;;;5008867;28;20419;-70
2021/04/28 12:08:07;;;;;;;2.90;2.60;;;21.00;53.10;;;;;;5003965;28;20422;-69
2021/04/28 12:10:33;;;;;;;2.50;2.30;;;21.00;53.50;;;;;;4991063;28;20476;-69
2021/04/28 12:12:59;;;;;;;2.50;2.30;;;20.90;54.20;;;;;;4995030;28;20426;-70
2021/04/28 12:15:25;;;;;;;2.20;2.10;;;20.90;53.20;;;;;;5000275;28;20515;-70
2021/04/28 12:17:54;;;;;;;5.30;1.70;;;20.90;53.90;;;;;;4990802;28;20653;-70
2021/04/28 12:20:20;;;;;;;2.20;2.08;;;20.90;53.90;;;;;;5008961;28;20411;-71
2021/04/28 12:22:47;;;;;;;2.13;2.03;;;20.90;54.10;;;;;;4993999;28;20409;-70
2021/04/28 12:25:14;;;;;;;2.60;2.20;;;20.90;54.10;;;;;;4993579;28;20411;-70
2021/04/28 12:27:40;;;;;;;2.30;2.10;;;20.90;54.10;;;;;;4990580;28;20416;-70
2021/04/28 12:30:07;;;;;;;2.13;2.03;;;20.90;54.10;;;;;;5008573;28;21132;-70
2021/04/28 12:32:34;;;;;;;2.13;1.92;;;20.90;54.20;;;;;;4999947;28;20450;-70
2021/04/28 12:35:10;;;;;;;2.35;2.20;;;20.90;53.90;;;;;;4998621;28;20443;-70
2021/04/28 12:37:36;;;;;;;3.20;1.90;;;20.90;53.70;;;;;;4996073;28;20986;-70
2021/04/28 12:40:04;;;;;;;2.63;2.20;;;20.90;53.80;;;;;;5000434;28;20419;-69
2021/04/28 12:42:31;;;;;;;2.83;1.90;;;20.90;53.50;;;;;;4997260;28;21461;-70
2021/04/28 12:44:58;;;;;;;2.03;1.92;;;20.90;53.60;;;;;;4997691;28;20437;-71
2021/04/28 12:47:25;;;;;;;2.50;2.40;;;21.00;53.70;;;;;;5001460;28;20490;-70